Ulsteinvik  Ulsteinvik


Beaufortskalaen  Beaufortskalaen


Clouds and precipitation  Clouds and precipitation


Nedbørsradar more information rain snow radar


Ingen spesiell oppmerksomhet om været er nødvendig.    Det er ingen advarsler

Nære METAR rapporter

   
ENAL - Ålesund
oppdatert: 15-12-2019 14:50
Klart  
Klart  
   Vind: Sør 2.6 m/s<br />Gust to 2.6 m/s
Vind: Sør 2.6 m/s
Gust to 2.6 m/s
Temperatur: 3°C
Wind Chill: 1°C
Duggpunkt: -3°C
Fuktighet: 65%
Barometer: 981 hPa
Sikt: More than 10 km
Skydetaljer: Klart
ENAL 151350Z 17005G16KT 130V260 CAVOK 03/M03 Q0981
ENOV - Ørsta
oppdatert: 15-12-2019 14:50
Klart  
Klart  
   Vind: Stille
Vind: Stille
Temperatur: -1°C
Duggpunkt: -4°C
Fuktighet: 80%
Barometer: 981 hPa
Sikt: More than 10 km
Skydetaljer: Klart
ENOV 151350Z 00000KT CAVOK M01/M04 Q0981 RMK WIND 2175FT 15013KT
ENML - Tafjorden
oppdatert: 15-12-2019 14:50
Klart  
Klart  
   Vind: NNØ 3.6 m/s
Vind: NNØ 3.6 m/s
Temperatur: 0°C
Wind Chill: -4°C
Duggpunkt: -5°C
Fuktighet: 69%
Barometer: 981 hPa
Sikt: More than 10 km
Skydetaljer: Klart
ENML 151350Z 03007KT CAVOK 00/M05 Q0981
ENML - Molde
oppdatert: 15-12-2019 14:50
Klart  
Klart  
   Vind: NNØ 3.6 m/s
Vind: NNØ 3.6 m/s
Temperatur: 0°C
Wind Chill: -4°C
Duggpunkt: -5°C
Fuktighet: 69%
Barometer: 981 hPa
Sikt: More than 10 km
Skydetaljer: Klart
ENML 151350Z 03007KT CAVOK 00/M05 Q0981
ENFL - Florø
oppdatert: 15-12-2019 14:50
Regn i nærheten, For det meste skyet  
Regn i nærheten, For det meste skyet  
   Vind: Øst 4.6 m/s
Vind: Øst 4.6 m/s
Temperatur: 4°C
Wind Chill: 0°C
Duggpunkt: 1°C
Fuktighet: 81%
Barometer: 981 hPa
Skyer: For det meste skyet
Sikt: More than 10 km
Skydetaljer: få skyer 609.6 m,
Delvis Skyet 1341.1 m,
For det meste skyet 1889.8 m
ENFL 151350Z 09009KT 9999 VCSH FEW020 SCT044 BKN062 04/01 Q0981
ENVA - Trondheim
oppdatert: 15-12-2019 14:50
Klart  
Klart  
   Vind: ØSØ 5.7 m/s
Vind: ØSØ 5.7 m/s
Temperatur: 4°C
Wind Chill: 0°C
Duggpunkt: -2°C
Fuktighet: 65%
Barometer: 984 hPa
Sikt: More than 10 km
Skydetaljer: Klart
ENVA 151350Z 11011KT CAVOK 04/M02 Q0984 NOSIG RMK WIND 670FT 15014KT
ENBR - Bergen
oppdatert: 15-12-2019 14:50
Delvis Skyet  
Delvis Skyet  
   Vind: SØ 4.1 m/s
Vind: SØ 4.1 m/s
Temperatur: 4°C
Wind Chill: 1°C
Duggpunkt: 2°C
Fuktighet: 87%
Barometer: 981 hPa
Skyer: Delvis Skyet
Sikt: More than 10 km
Skydetaljer: få skyer 457.2 m,
Delvis Skyet 1219.2 m
ENBR 151350Z 13008KT 9999 FEW015TCU SCT040 04/02 Q0981 TEMPO 19012KT SHRA BKN014CB RMK WIND 1200FT 13016KT
ENZV - Stavanger
oppdatert: 15-12-2019 14:50
Regn i nærheten, For det meste skyet  
Regn i nærheten, For det meste skyet  
   Vind: SØ 3.6 m/s
Vind: SØ 3.6 m/s
Temperatur: 4°C
Wind Chill: 1°C
Duggpunkt: 1°C
Fuktighet: 81%
Barometer: 983 hPa
Skyer: For det meste skyet
Sikt: More than 10 km
Skydetaljer: få skyer 762 m,
få skyer 1219.2 m,
For det meste skyet 2743.2 m
ENZV 151350Z 14007KT 9999 VCSH FEW025CB FEW040 BKN090 04/01 Q0983 TEMPO SHRA
ENGM - Oslo
oppdatert: 15-12-2019 14:20
Lett snø, Nedbør, Dis, Overskyet  
Lett snø, Nedbør, Dis, Overskyet  
   Vind: NNØ 2.6 m/s
Vind: NNØ 2.6 m/s
Temperatur: 1°C
Wind Chill: -2°C
Duggpunkt: 0°C
Fuktighet: 93%
Barometer: 983 hPa
Skyer: Overskyet
Sikt: 5 km
Skydetaljer: Overskyet 91.4 m
ENGM 151320Z 02005KT 300V080 5000 2300SW -SNRA BR OVC003 01/00 Q0983 TEMPO 4500 -RASN OVC006
ESSA - Stockholm
oppdatert: 15-12-2019 14:50
For det meste skyet  
For det meste skyet  
   Vind: SSØ 2.6 m/s
Vind: SSØ 2.6 m/s
Temperatur: 3°C
Wind Chill: 1°C
Duggpunkt: 2°C
Fuktighet: 93%
Barometer: 988 hPa
Skyer: For det meste skyet
Sikt: More than 10 km
Skydetaljer: Delvis Skyet 365.8 m,
For det meste skyet 609.6 m
ESSA 151350Z 15005KT 9999 SCT012 BKN020 03/02 Q0988 R01L/29//95 R08/////// R01R/29//95 NOSIG
EKCH - København
oppdatert: 15-12-2019 14:50
Delvis Skyet  
Delvis Skyet  
   Vind: SV 11.3 m/s
Vind: SV 11.3 m/s
Temperatur: 6°C
Wind Chill: 1°C
Duggpunkt: 3°C
Fuktighet: 81%
Barometer: 987 hPa
Skyer: Delvis Skyet
Sikt: More than 10 km
Skydetaljer: Delvis Skyet 609.6 m,
Delvis Skyet 914.4 m
EKCH 151350Z 22022KT 9999 SCT020 SCT030CB 06/03 Q0987 TEMPO 23025G38KT SHRA
ENHV - Nordkapp
oppdatert: 13-12-2019 22:50
Ikkje oppdatert
Klart  
Klart  
   Vind: Sør 10.3 m/s
Vind: Sør 10.3 m/s
Temperatur: 1°C
Wind Chill: -6°C
Duggpunkt: -3°C
Fuktighet: 75%
Barometer: 993 hPa
Sikt: More than 10 km
Skydetaljer: Klart
ENHV 132150Z 18020KT CAVOK 01/M03 Q0993
ENSB - Svalbard
oppdatert: 15-12-2019 14:50
For det meste skyet  
For det meste skyet  
   Vind: SØ 10.3 m/s
Vind: SØ 10.3 m/s
Temperatur: -5°C
Wind Chill: -14°C
Duggpunkt: -11°C
Fuktighet: 63%
Barometer: 1014 hPa
Skyer: For det meste skyet
Sikt: More than 10 km
Skydetaljer: få skyer 914.4 m,
Delvis Skyet 2743.2 m,
For det meste skyet 3657.6 m
ENSB 151350Z 13020KT 9999 FEW030 SCT090 BKN120 M05/M11 Q1014 RMK WIND 1400FT 12030KT
NZSP - Sørpolen
oppdatert: 15-12-2019 12:50
Ikkje oppdatert
Lette snøkorn, For det meste skyet  
Lette snøkorn, For det meste skyet  
   Vind: NØ 4.1 m/s
Vind: NØ 4.1 m/s
Temperatur: -24°C
Wind Chill: -34°C
Barometer: 981 hPa
Skyer: For det meste skyet
Sikt: More than 10 km
Skydetaljer: For det meste skyet 762 m
NZSP 151150Z 04008KT 9999 -SG BKN025 M24/ A2897 RMK CIG 025V030 CLN AIR 05007KT ALL WNDS GRID SDG/HDG
 

Script utviklet av  Saratoga-weather.org Tilrettelagt for malen av  Weerstation Leuven

Utstyr vi bruker:

Værstsjon
Davis VP2+ 24/H Fars, Online-Ups, 4G Backup.

Værprogram
Weather Display

Ekstra utstyr
Custom builds pcs

Provider
Hosted By Pro Isp

Davis VP2+ 24/H Fars, Online-Ups, 4G Backup.

Weather Display

Custom builds pcs

Hosted By Pro Isp


*